Terminal Aerodrome Forecast
Issued by NWS Tiyan, Guam

Home | Current Version | Previous Version | Text Only | Print | Product List | Glossary On
Versions: 1 2 3 4 5 6 7 8 9 10 11 12 13 14 15 16 17 18 19 20 21 22 23 24 25 26 27 28 29 30 31 32
000
FTPQ31 PGUM 292320
TAFGUM
TAF
PGUM 292320Z 3000/3106 07017G27KT P6SM VCSH SCT022 SCT120
     FM300900 06013G23KT P6SM SCT018 SCT050 BKN120
     FM310100 08018G28KT P6SM VCSH SCT020 BKN035 BKN120=

USA.gov is the U.S. government's official web portal to all federal, state and local government web resources and services.